Time;durP1;ratioP1;P1;durP2;ratioP2;P2;SDS_P1;SDS_P2;PMS_P1;PMS_P2;Temp;Humidity;BMP_temperature;BMP_pressure;BME280_temperature;BME280_humidity;BME280_pressure;Samples;Min_cycle;Max_cycle;Signal;HPM_P1;HPM_P2
2022/06/28 00:01:40;;;;;;;18.83;4.03;;;22.30;83.10;;;;;;5026425;28;20036;-61
2022/06/28 00:04:06;;;;;;;16.88;4.30;;;22.30;83.10;;;;;;5031846;28;20475;-62
2022/06/28 00:06:31;;;;;;;10.25;4.25;;;22.30;83.10;;;;;;5065552;28;20039;-61
2022/06/28 00:08:57;;;;;;;11.57;4.43;;;22.30;83.00;;;;;;5047105;28;20350;-61
2022/06/28 00:11:22;;;;;;;13.77;4.22;;;22.30;82.90;;;;;;5063814;28;20043;-61
2022/06/28 00:13:48;;;;;;;10.88;3.80;;;22.30;82.90;;;;;;5064031;28;20067;-61
2022/06/28 00:16:16;;;;;;;11.73;4.85;;;22.30;82.90;;;;;;5064185;28;20080;-61
2022/06/28 00:18:42;;;;;;;10.40;4.53;;;22.20;82.80;;;;;;5064999;28;20020;-61
2022/06/28 00:21:07;;;;;;;10.73;4.63;;;22.20;82.90;;;;;;5031742;28;20032;-61
2022/06/28 00:23:33;;;;;;;12.55;4.22;;;22.20;82.90;;;;;;5030010;28;20052;-61
2022/06/28 00:25:59;;;;;;;11.05;4.40;;;22.10;82.80;;;;;;5045951;28;20511;-62
2022/06/28 00:28:25;;;;;;;8.85;3.92;;;22.20;82.80;;;;;;5012212;28;20027;-60
2022/06/28 00:30:50;;;;;;;7.53;3.78;;;22.10;82.70;;;;;;5031213;28;20024;-62
2022/06/28 00:33:16;;;;;;;8.35;3.53;;;22.10;82.70;;;;;;5065676;28;20047;-60
2022/06/28 00:35:41;;;;;;;10.20;3.47;;;22.10;82.60;;;;;;5029529;28;20056;-61
2022/06/28 00:38:07;;;;;;;10.27;3.33;;;22.10;82.60;;;;;;5045238;28;20040;-61
2022/06/28 00:40:33;;;;;;;10.15;3.28;;;22.00;83.10;;;;;;5029559;28;20426;-61
2022/06/28 00:42:58;;;;;;;10.90;3.22;;;22.00;82.50;;;;;;5029334;28;20100;-63
2022/06/28 00:45:25;;;;;;;10.05;3.35;;;22.00;82.40;;;;;;5047602;28;20386;-62
2022/06/28 00:47:50;;;;;;;7.55;3.53;;;22.00;82.50;;;;;;5064084;28;20024;-63
2022/06/28 00:50:16;;;;;;;7.65;4.00;;;22.00;82.40;;;;;;5028658;28;20066;-61
2022/06/28 00:53:01;;;;;;;6.80;3.78;;;22.00;82.40;;;;;;5047817;28;20128;-63
2022/06/28 00:55:26;;;;;;;8.90;3.20;;;22.00;82.30;;;;;;5063258;28;20497;-61
2022/06/28 00:57:52;;;;;;;7.97;3.15;;;22.00;82.40;;;;;;5047561;28;20025;-61
2022/06/28 01:00:17;;;;;;;10.73;2.92;;;21.90;82.30;;;;;;5029366;28;20031;-60
2022/06/28 01:02:43;;;;;;;5.75;2.88;;;21.90;82.40;;;;;;5062402;28;20033;-61
2022/06/28 01:05:08;;;;;;;7.63;3.17;;;21.80;82.30;;;;;;5028313;28;20072;-61
2022/06/28 01:07:34;;;;;;;6.68;3.25;;;21.80;82.40;;;;;;5045391;28;20253;-61
2022/06/28 01:10:00;;;;;;;8.05;3.50;;;21.80;82.40;;;;;;5047712;28;20012;-61
2022/06/28 01:12:25;;;;;;;4.25;3.03;;;21.80;82.40;;;;;;5064808;28;20025;-61
2022/06/28 01:14:51;;;;;;;5.30;2.95;;;21.80;82.30;;;;;;5062847;28;20056;-61
2022/06/28 01:17:16;;;;;;;4.93;3.00;;;21.80;82.30;;;;;;5051332;28;20563;-61
2022/06/28 01:19:42;;;;;;;6.25;3.20;;;21.80;82.30;;;;;;5042037;28;20174;-61
2022/06/28 01:22:09;;;;;;;6.47;3.15;;;21.70;82.30;;;;;;5045068;28;20551;-61
2022/06/28 01:24:35;;;;;;;8.82;3.50;;;21.80;82.30;;;;;;5044171;28;20070;-61
2022/06/28 01:27:00;;;;;;;6.65;3.70;;;21.70;82.40;;;;;;5041384;28;20029;-62
2022/06/28 01:29:26;;;;;;;8.65;4.68;;;21.70;82.60;;;;;;5024928;28;20032;-61
2022/06/28 01:31:52;;;;;;;5.00;3.70;;;21.70;82.70;;;;;;5041463;28;20044;-61
2022/06/28 01:34:17;;;;;;;10.57;3.33;;;21.70;82.70;;;;;;5024896;28;20024;-64
2022/06/28 01:36:43;;;;;;;11.30;3.03;;;21.70;82.80;;;;;;5042550;28;20590;-62
2022/06/28 01:39:08;;;;;;;9.02;3.38;;;21.70;82.70;;;;;;5042842;28;20432;-61
2022/06/28 01:41:34;;;;;;;5.65;2.90;;;21.70;82.70;;;;;;5038901;28;20095;-61
2022/06/28 01:44:01;;;;;;;3.60;2.88;;;21.70;82.80;;;;;;5040287;28;20469;-61
2022/06/28 01:46:26;;;;;;;6.38;2.80;;;21.60;82.90;;;;;;5040531;28;20154;-61
2022/06/28 01:48:52;;;;;;;5.50;2.58;;;21.60;82.90;;;;;;5041519;28;20520;-61
2022/06/28 01:51:18;;;;;;;8.25;3.40;;;21.60;83.00;;;;;;5026797;28;20021;-61
2022/06/28 01:53:43;;;;;;;6.63;2.92;;;21.60;83.00;;;;;;5042512;28;20107;-61
2022/06/28 01:56:09;;;;;;;6.80;3.25;;;21.60;83.00;;;;;;5042401;28;20174;-60
2022/06/28 01:58:34;;;;;;;5.15;2.67;;;21.60;83.00;;;;;;5043069;28;20082;-61
2022/06/28 02:01:00;;;;;;;5.40;2.70;;;21.50;82.80;;;;;;5044100;28;20086;-61
2022/06/28 02:03:25;;;;;;;17.50;3.75;;;21.60;82.80;;;;;;5044099;28;20021;-61
2022/06/28 02:05:51;;;;;;;7.00;3.45;;;21.50;83.30;;;;;;5044170;28;20098;-61
2022/06/28 02:08:16;;;;;;;7.10;3.22;;;21.50;83.80;;;;;;5042945;28;20590;-61
2022/06/28 02:10:42;;;;;;;4.32;2.83;;;21.50;83.60;;;;;;5042362;28;20059;-61
2022/06/28 02:13:08;;;;;;;5.30;2.90;;;21.50;83.50;;;;;;5043034;28;20072;-61
2022/06/28 02:15:33;;;;;;;7.82;2.70;;;21.50;83.50;;;;;;5042792;28;20037;-61
2022/06/28 02:17:59;;;;;;;4.80;3.00;;;21.50;83.50;;;;;;5044393;28;20059;-61
2022/06/28 02:20:25;;;;;;;4.03;2.83;;;21.50;83.50;;;;;;5026184;28;20522;-61
2022/06/28 02:22:50;;;;;;;5.40;3.00;;;21.50;83.60;;;;;;5025234;28;20044;-60
2022/06/28 02:25:17;;;;;;;4.88;2.90;;;21.40;84.10;;;;;;5045616;28;20023;-61
2022/06/28 02:27:43;;;;;;;6.55;3.13;;;21.50;83.60;;;;;;5046247;28;20017;-61
2022/06/28 02:30:09;;;;;;;5.13;2.38;;;21.50;83.60;;;;;;5042149;28;20024;-61
2022/06/28 02:32:35;;;;;;;5.18;2.30;;;21.40;83.50;;;;;;5038983;28;20081;-61
2022/06/28 02:40:29;;;;;;;6.40;2.40;;;21.50;83.50;;;;;;5029265;28;20549;-60
2022/06/28 02:42:58;;;;;;;3.85;2.30;;;21.50;83.50;;;;;;5044282;28;20107;-61
2022/06/28 02:45:25;;;;;;;7.40;2.60;;;21.40;83.40;;;;;;5043191;28;20036;-60
2022/06/28 02:47:51;;;;;;;4.13;2.58;;;21.40;83.40;;;;;;5042460;28;20055;-61
2022/06/28 02:50:17;;;;;;;6.28;2.50;;;21.40;83.60;;;;;;5041265;28;20041;-61
2022/06/28 02:52:42;;;;;;;6.68;2.25;;;21.40;83.60;;;;;;5041094;28;20043;-61
2022/06/28 02:55:08;;;;;;;3.15;2.38;;;21.40;83.70;;;;;;5043318;28;20024;-61
2022/06/28 02:57:34;;;;;;;3.60;2.22;;;21.40;83.70;;;;;;5041241;28;20032;-61
2022/06/28 03:00:00;;;;;;;5.65;2.40;;;21.30;83.70;;;;;;5026161;28;20111;-60
2022/06/28 03:02:25;;;;;;;5.90;2.60;;;21.30;83.70;;;;;;5042064;28;20186;-61
2022/06/28 03:04:51;;;;;;;5.13;2.50;;;21.30;83.80;;;;;;5039787;28;20033;-61
2022/06/28 03:07:16;;;;;;;5.25;2.15;;;21.40;83.80;;;;;;5032468;28;20040;-61
2022/06/28 03:09:42;;;;;;;4.95;1.98;;;21.30;83.70;;;;;;5034184;28;20132;-61
2022/06/28 03:12:08;;;;;;;5.07;2.33;;;21.30;83.70;;;;;;5041001;28;20066;-62
2022/06/28 03:14:34;;;;;;;4.82;2.10;;;21.30;83.80;;;;;;5048018;28;20084;-61
2022/06/28 03:16:59;;;;;;;5.80;2.20;;;21.30;83.90;;;;;;5054315;28;20044;-61
2022/06/28 03:19:25;;;;;;;5.07;2.13;;;21.30;83.90;;;;;;5039856;28;20028;-61
2022/06/28 03:21:50;;;;;;;3.85;2.70;;;21.30;83.90;;;;;;5062054;28;20049;-61
2022/06/28 03:24:16;;;;;;;5.85;3.08;;;21.30;83.90;;;;;;5062073;28;20025;-61
2022/06/28 03:26:42;;;;;;;5.57;2.78;;;21.20;83.90;;;;;;5059895;28;20057;-61
2022/06/28 03:29:07;;;;;;;4.63;2.55;;;21.30;84.00;;;;;;5042658;28;20032;-61
2022/06/28 03:31:33;;;;;;;7.05;2.70;;;21.20;84.00;;;;;;5060052;28;20529;-61
2022/06/28 03:33:58;;;;;;;6.13;2.97;;;21.20;84.00;;;;;;5042818;28;20044;-61
2022/06/28 03:36:24;;;;;;;6.47;2.88;;;21.20;84.00;;;;;;5042506;28;20060;-61
2022/06/28 03:38:49;;;;;;;5.90;2.80;;;21.20;84.00;;;;;;5028852;28;20033;-61
2022/06/28 03:41:24;;;;;;;6.97;2.53;;;21.20;84.10;;;;;;5064268;28;20086;-61
2022/06/28 03:43:50;;;;;;;5.15;2.60;;;21.20;84.20;;;;;;5040700;28;20025;-61
2022/06/28 03:46:16;;;;;;;6.45;3.08;;;21.20;84.20;;;;;;5046544;28;20035;-61
2022/06/28 03:48:41;;;;;;;7.32;2.95;;;21.20;84.20;;;;;;5064165;28;20031;-61
2022/06/28 03:51:07;;;;;;;10.13;2.90;;;21.20;84.20;;;;;;5065088;28;20035;-61
2022/06/28 03:53:32;;;;;;;4.30;2.50;;;21.20;84.20;;;;;;5064420;28;20085;-61
2022/06/28 03:55:58;;;;;;;8.32;2.83;;;21.20;84.40;;;;;;5046146;28;20016;-61
2022/06/28 03:58:23;;;;;;;8.30;2.92;;;21.20;84.40;;;;;;5064284;28;20078;-61
2022/06/28 04:00:49;;;;;;;9.50;3.08;;;21.20;84.10;;;;;;5064352;28;20369;-61
2022/06/28 04:03:14;;;;;;;12.45;3.03;;;21.20;84.00;;;;;;5064872;28;20508;-61
2022/06/28 04:05:40;;;;;;;5.65;2.92;;;21.20;84.00;;;;;;5062471;28;20037;-61
2022/06/28 04:08:05;;;;;;;12.02;2.75;;;21.20;84.00;;;;;;5044956;28;20068;-61
2022/06/28 04:10:31;;;;;;;6.05;2.58;;;21.20;84.30;;;;;;5063175;28;20108;-61
2022/06/28 04:12:56;;;;;;;7.32;2.80;;;21.20;84.50;;;;;;5044584;28;20024;-61
2022/06/28 04:15:22;;;;;;;15.77;3.15;;;21.20;84.50;;;;;;5064391;28;20028;-61
2022/06/28 04:17:47;;;;;;;22.20;4.13;;;21.20;84.60;;;;;;5044954;28;20052;-61
2022/06/28 04:20:13;;;;;;;52.03;7.38;;;21.20;84.90;;;;;;5061493;28;20540;-61
2022/06/28 04:22:38;;;;;;;21.13;4.90;;;21.20;84.90;;;;;;5063700;28;20025;-61
2022/06/28 04:25:04;;;;;;;23.23;4.90;;;21.20;84.80;;;;;;5065210;28;20538;-61
2022/06/28 04:27:30;;;;;;;20.73;4.05;;;21.20;84.80;;;;;;5063690;28;20391;-62
2022/06/28 04:29:55;;;;;;;26.63;5.03;;;21.20;84.90;;;;;;5063654;28;20021;-61
2022/06/28 04:32:21;;;;;;;14.80;4.00;;;21.20;84.90;;;;;;5062776;28;20020;-61
2022/06/28 04:34:46;;;;;;;18.58;4.25;;;21.10;84.90;;;;;;5043823;28;20485;-61
2022/06/28 04:37:12;;;;;;;19.83;4.22;;;21.10;84.90;;;;;;5062146;28;20040;-61
2022/06/28 04:39:37;;;;;;;18.42;4.13;;;21.20;85.00;;;;;;5047191;28;20082;-61
2022/06/28 04:42:05;;;;;;;20.42;4.53;;;21.20;85.00;;;;;;5063852;28;20105;-61
2022/06/28 04:44:30;;;;;;;21.33;4.05;;;21.20;84.90;;;;;;5044673;28;20025;-61
2022/06/28 04:46:56;;;;;;;21.27;4.18;;;21.20;84.90;;;;;;5043945;28;20241;-61
2022/06/28 04:49:22;;;;;;;19.98;4.05;;;21.20;85.00;;;;;;5058203;28;20174;-61
2022/06/28 04:51:47;;;;;;;12.90;4.10;;;21.20;85.10;;;;;;5063988;28;20043;-61
2022/06/28 04:54:13;;;;;;;15.07;3.95;;;21.20;85.30;;;;;;5064580;28;20472;-61
2022/06/28 04:56:38;;;;;;;15.18;3.75;;;21.20;85.40;;;;;;5062398;28;20047;-61
2022/06/28 04:59:04;;;;;;;18.98;3.72;;;21.10;85.50;;;;;;5043978;28;20079;-61
2022/06/28 05:01:29;;;;;;;18.15;4.40;;;21.10;85.50;;;;;;5045571;28;20175;-60
2022/06/28 05:03:55;;;;;;;16.52;3.90;;;21.10;85.60;;;;;;5044565;28;20127;-61
2022/06/28 05:06:20;;;;;;;13.98;4.00;;;21.10;85.60;;;;;;5063144;28;20128;-61
2022/06/28 05:08:46;;;;;;;20.02;4.45;;;21.10;85.60;;;;;;5062985;28;21284;-61
2022/06/28 05:11:11;;;;;;;15.88;4.13;;;21.10;85.60;;;;;;5043934;28;20062;-61
2022/06/28 05:13:37;;;;;;;10.48;4.40;;;21.10;85.40;;;;;;5062269;28;20091;-61
2022/06/28 05:16:02;;;;;;;22.60;4.97;;;21.10;85.40;;;;;;5041493;28;20102;-61
2022/06/28 05:18:28;;;;;;;14.80;4.55;;;21.10;85.40;;;;;;5025346;28;20041;-61
2022/06/28 05:20:53;;;;;;;18.98;5.13;;;21.10;85.50;;;;;;5053359;28;20045;-61
2022/06/28 05:23:19;;;;;;;12.38;4.28;;;21.10;85.50;;;;;;5028049;28;20127;-61
2022/06/28 05:25:44;;;;;;;18.33;4.28;;;21.30;85.90;;;;;;5039712;28;20053;-61
2022/06/28 05:28:10;;;;;;;15.30;3.65;;;21.10;85.80;;;;;;5028979;28;20025;-61
2022/06/28 05:30:35;;;;;;;14.15;3.97;;;21.10;85.80;;;;;;5027068;28;20047;-61
2022/06/28 05:33:03;;;;;;;10.30;4.13;;;21.10;86.00;;;;;;5041684;28;20032;-61
2022/06/28 05:35:29;;;;;;;16.08;3.92;;;21.10;86.00;;;;;;5022357;28;20025;-60
2022/06/28 05:37:54;;;;;;;13.73;4.15;;;21.20;86.00;;;;;;5040973;28;20419;-61
2022/06/28 05:40:21;;;;;;;12.48;3.80;;;21.10;86.00;;;;;;5039330;28;20029;-61
2022/06/28 05:42:46;;;;;;;12.82;3.95;;;21.10;86.20;;;;;;5042364;28;20060;-61
2022/06/28 05:45:12;;;;;;;9.32;3.90;;;21.10;86.70;;;;;;5043108;28;20132;-61
2022/06/28 05:47:38;;;;;;;9.65;3.65;;;21.20;86.20;;;;;;5024527;28;20070;-61
2022/06/28 05:50:04;;;;;;;15.32;3.78;;;21.20;86.20;;;;;;5045692;28;20047;-61
2022/06/28 05:52:29;;;;;;;13.05;4.40;;;21.20;86.40;;;;;;5041802;28;20509;-61
2022/06/28 05:54:54;;;;;;;13.48;3.92;;;21.20;86.30;;;;;;5038986;28;20041;-61
2022/06/28 05:57:20;;;;;;;13.38;3.80;;;21.20;86.20;;;;;;5027828;28;20449;-61
2022/06/28 05:59:45;;;;;;;11.80;3.75;;;21.20;86.20;;;;;;5042401;28;20033;-61
2022/06/28 06:02:11;;;;;;;13.27;3.50;;;21.20;86.30;;;;;;5038991;28;20127;-61
2022/06/28 06:04:38;;;;;;;10.30;3.45;;;21.20;86.40;;;;;;5040257;28;20041;-60
2022/06/28 06:07:04;;;;;;;13.63;3.53;;;21.20;86.40;;;;;;5038673;28;20013;-60
2022/06/28 06:09:29;;;;;;;9.65;3.83;;;21.20;86.80;;;;;;5027270;28;20078;-61
2022/06/28 06:11:55;;;;;;;7.95;3.20;;;21.10;87.00;;;;;;5032100;28;20079;-61
2022/06/28 06:14:21;;;;;;;10.52;3.35;;;21.10;87.30;;;;;;5040755;28;20059;-61
2022/06/28 06:16:50;;;;;;;9.95;3.17;;;21.10;87.40;;;;;;5045557;28;20028;-60
2022/06/28 06:19:16;;;;;;;11.40;3.15;;;21.10;87.60;;;;;;5040416;28;20371;-61
2022/06/28 06:21:42;;;;;;;8.00;3.42;;;21.10;87.60;;;;;;5055981;28;20310;-61
2022/06/28 06:24:07;;;;;;;10.55;3.28;;;21.10;87.30;;;;;;5041852;28;20476;-61
2022/06/28 06:26:33;;;;;;;8.85;3.03;;;21.10;87.50;;;;;;5041181;28;20033;-61
2022/06/28 06:28:59;;;;;;;10.43;3.33;;;21.20;87.80;;;;;;5049859;28;20128;-60
2022/06/28 06:31:25;;;;;;;12.75;3.15;;;21.20;88.00;;;;;;5039951;28;20613;-60
2022/06/28 06:33:52;;;;;;;11.48;3.30;;;21.20;87.80;;;;;;5047119;28;20164;-60
2022/06/28 06:36:17;;;;;;;10.60;3.25;;;21.20;88.10;;;;;;5048025;28;20107;-61
2022/06/28 06:38:43;;;;;;;12.95;3.13;;;21.20;88.20;;;;;;5025840;28;20115;-60
2022/06/28 06:41:08;;;;;;;14.07;3.55;;;21.20;87.90;;;;;;5043345;28;20028;-60
2022/06/28 06:43:34;;;;;;;14.43;3.95;;;21.20;88.10;;;;;;5041080;28;20443;-61
2022/06/28 06:46:00;;;;;;;19.17;2.92;;;21.20;88.30;;;;;;5037955;28;20025;-61
2022/06/28 06:48:25;;;;;;;16.92;4.00;;;21.30;88.30;;;;;;5047527;28;20033;-61
2022/06/28 06:50:51;;;;;;;17.85;3.88;;;21.20;88.90;;;;;;5041772;28;20025;-62
2022/06/28 06:53:19;;;;;;;16.42;3.17;;;21.20;89.90;;;;;;5042717;28;20020;-61
2022/06/28 06:55:46;;;;;;;23.05;3.45;;;21.20;89.10;;;;;;5045454;28;20021;-61
2022/06/28 06:58:12;;;;;;;18.48;3.40;;;21.30;88.80;;;;;;5025835;28;20039;-61
2022/06/28 07:00:37;;;;;;;16.52;3.47;;;21.30;88.90;;;;;;5033667;28;20444;-61
2022/06/28 07:03:03;;;;;;;25.80;3.78;;;21.30;88.70;;;;;;5023723;28;20040;-63
2022/06/28 07:05:29;;;;;;;17.42;3.55;;;21.30;88.60;;;;;;5051037;28;20060;-61
2022/06/28 07:07:54;;;;;;;63.80;6.60;;;21.40;88.60;;;;;;5050608;28;20111;-61
2022/06/28 07:10:20;;;;;;;41.30;5.25;;;21.30;89.00;;;;;;5041480;28;20044;-61
2022/06/28 07:12:46;;;;;;;35.75;5.18;;;21.40;88.50;;;;;;5053244;28;20521;-61
2022/06/28 07:15:11;;;;;;;31.38;5.45;;;21.40;88.10;;;;;;5045000;28;20162;-61
2022/06/28 07:17:37;;;;;;;35.42;4.78;;;21.50;88.30;;;;;;5059783;28;20048;-61
2022/06/28 07:20:04;;;;;;;21.30;4.47;;;21.50;88.10;;;;;;5031410;28;20044;-61
2022/06/28 07:22:29;;;;;;;35.95;5.07;;;21.50;88.50;;;;;;5044375;28;20059;-62
2022/06/28 07:24:56;;;;;;;26.98;5.03;;;21.60;88.80;;;;;;5048778;28;20032;-61
2022/06/28 07:27:22;;;;;;;20.35;3.65;;;21.60;88.80;;;;;;5056936;28;20036;-61
2022/06/28 07:29:48;;;;;;;20.50;4.35;;;21.60;88.60;;;;;;5067445;28;20029;-63
2022/06/28 07:32:14;;;;;;;28.58;4.45;;;21.60;88.60;;;;;;5016868;28;20040;-60
2022/06/28 07:34:39;;;;;;;21.95;4.25;;;21.70;88.40;;;;;;5046498;28;20037;-61
2022/06/28 07:37:05;;;;;;;24.00;4.35;;;21.70;88.10;;;;;;5067218;28;20045;-61
2022/06/28 07:39:30;;;;;;;38.58;4.60;;;21.70;88.40;;;;;;5030548;28;20028;-61
2022/06/28 07:41:56;;;;;;;32.28;4.82;;;21.70;88.30;;;;;;5025085;28;20452;-61
2022/06/28 07:44:21;;;;;;;34.42;4.72;;;21.70;88.70;;;;;;5049961;28;20100;-60
2022/06/28 07:46:47;;;;;;;27.40;4.05;;;21.70;89.20;;;;;;5068330;28;20610;-62
2022/06/28 07:49:12;;;;;;;36.72;6.13;;;21.70;89.10;;;;;;5066376;28;20055;-61
2022/06/28 07:54:22;;;;;;;36.83;6.13;;;21.70;89.20;;;;;;5068485;28;20075;-61
2022/06/28 07:56:47;;;;;;;48.50;6.63;;;21.80;89.20;;;;;;5045361;28;20036;-62
2022/06/28 07:59:16;;;;;;;43.83;5.97;;;21.70;89.40;;;;;;5065705;28;20175;-62
2022/06/28 08:01:42;;;;;;;48.05;6.30;;;21.80;89.10;;;;;;5061817;28;20056;-61
2022/06/28 08:04:08;;;;;;;61.67;7.60;;;21.80;89.00;;;;;;5047317;28;20638;-61
2022/06/28 08:06:33;;;;;;;49.83;6.07;;;21.80;89.00;;;;;;5046500;28;20041;-61
2022/06/28 08:08:59;;;;;;;57.03;7.10;;;21.90;89.00;;;;;;5049905;28;20357;-61
2022/06/28 08:11:24;;;;;;;52.17;7.20;;;21.90;88.80;;;;;;5060300;28;20053;-60
2022/06/28 08:13:52;;;;;;;65.95;7.15;;;21.90;88.80;;;;;;5047702;28;20032;-61
2022/06/28 08:16:17;;;;;;;60.17;6.88;;;22.00;88.80;;;;;;5046428;28;20073;-61
2022/06/28 08:18:44;;;;;;;77.97;7.93;;;22.00;89.10;;;;;;5055411;28;20107;-61
2022/06/28 08:21:09;;;;;;;52.38;6.78;;;22.00;89.00;;;;;;5035231;28;20517;-61
2022/06/28 08:23:35;;;;;;;58.03;7.22;;;22.00;88.80;;;;;;5045417;28;20041;-61
2022/06/28 08:26:00;;;;;;;91.93;9.63;;;22.10;88.60;;;;;;5053883;28;20057;-62
2022/06/28 08:28:26;;;;;;;82.03;8.13;;;22.10;89.50;;;;;;5025170;28;20036;-62
2022/06/28 08:30:52;;;;;;;73.97;9.20;;;22.10;88.90;;;;;;5031935;28;20039;-60
2022/06/28 08:33:17;;;;;;;79.20;9.80;;;22.10;89.00;;;;;;5053880;28;20041;-62
2022/06/28 08:35:43;;;;;;;74.45;8.60;;;22.10;88.50;;;;;;5035084;28;20032;-63
2022/06/28 08:38:08;;;;;;;58.67;7.47;;;22.10;88.40;;;;;;5057092;28;20037;-63
2022/06/28 08:40:34;;;;;;;101.35;10.65;;;22.20;88.20;;;;;;5046857;28;20352;-62
2022/06/28 08:43:00;;;;;;;94.18;11.30;;;22.20;88.00;;;;;;5044170;28;20033;-61
2022/06/28 08:45:25;;;;;;;91.57;10.27;;;22.30;88.40;;;;;;5038274;28;20025;-61
2022/06/28 08:47:52;;;;;;;85.93;9.40;;;22.30;88.40;;;;;;5033127;28;20425;-61
2022/06/28 08:50:30;;;;;;;110.78;12.73;;;22.20;87.80;;;;;;5065313;28;20080;-60
2022/06/28 08:52:56;;;;;;;88.97;11.55;;;22.30;87.80;;;;;;5026715;28;20021;-62
2022/06/28 08:55:22;;;;;;;91.85;11.15;;;22.30;87.50;;;;;;5049457;28;20040;-62
2022/06/28 08:57:47;;;;;;;83.13;10.20;;;22.30;87.50;;;;;;5036931;28;20119;-61
2022/06/28 09:00:13;;;;;;;101.13;12.77;;;22.30;87.50;;;;;;5037152;28;20021;-64
2022/06/28 09:02:39;;;;;;;105.28;12.05;;;22.40;87.60;;;;;;5036379;28;20048;-60
2022/06/28 09:05:05;;;;;;;99.97;12.82;;;22.40;87.50;;;;;;5024084;28;20044;-64
2022/06/28 09:07:31;;;;;;;98.45;12.23;;;22.40;87.40;;;;;;5057831;28;20028;-63
2022/06/28 09:09:56;;;;;;;94.45;10.95;;;22.50;87.30;;;;;;5056493;28;20385;-64
2022/06/28 09:12:22;;;;;;;100.38;12.25;;;22.50;87.30;;;;;;5057502;28;20457;-61
2022/06/28 09:14:48;;;;;;;107.72;13.38;;;22.50;87.60;;;;;;5041319;28;20044;-60
2022/06/28 09:17:24;;;;;;;104.35;13.07;;;22.50;87.60;;;;;;5059767;28;20556;-61
2022/06/28 09:19:57;;;;;;;149.85;16.33;;;22.40;87.40;;;;;;5046316;28;20132;-62
2022/06/28 09:22:34;;;;;;;109.47;13.70;;;22.50;87.40;;;;;;5029024;28;20094;-60
2022/06/28 09:25:01;;;;;;;116.15;13.68;;;22.60;87.30;;;;;;5032142;28;20404;-61
2022/06/28 09:27:34;;;;;;;106.25;13.25;;;22.60;87.10;;;;;;5028309;28;20100;-62
2022/06/28 09:30:03;;;;;;;98.85;12.88;;;22.60;87.10;;;;;;5027919;28;20024;-62
2022/06/28 09:32:30;;;;;;;112.13;12.57;;;22.70;87.10;;;;;;5031735;28;20064;-61
2022/06/28 09:35:00;;;;;;;87.53;11.32;;;22.70;86.90;;;;;;5011031;28;20044;-62
2022/06/28 09:37:45;;;;;;;109.03;11.98;;;22.80;87.00;;;;;;5033811;28;20031;-62
2022/06/28 09:40:31;;;;;;;104.45;12.07;;;22.80;86.80;;;;;;5058302;28;21558;-62
2022/06/28 09:43:11;;;;;;;93.80;11.65;;;22.80;86.50;;;;;;5035085;28;20697;-62
2022/06/28 09:45:40;;;;;;;69.88;10.07;;;22.90;86.40;;;;;;5016904;28;20025;-62
2022/06/28 09:48:06;;;;;;;93.43;10.20;;;22.90;86.40;;;;;;5031911;28;20111;-62
2022/06/28 09:50:33;;;;;;;75.65;10.82;;;22.90;86.40;;;;;;5032838;28;20033;-62
2022/06/28 09:52:59;;;;;;;73.72;9.93;;;22.90;86.20;;;;;;5024194;28;20028;-62
2022/06/28 09:55:27;;;;;;;56.13;8.57;;;23.00;86.20;;;;;;5038500;28;20552;-62
2022/06/28 09:57:53;;;;;;;79.40;9.65;;;23.00;86.10;;;;;;5049576;28;20036;-62
2022/06/28 10:00:21;;;;;;;85.32;9.95;;;23.00;86.10;;;;;;5024685;28;20036;-62
2022/06/28 10:02:47;;;;;;;86.85;10.30;;;23.00;86.20;;;;;;5035665;28;20156;-61
2022/06/28 10:05:13;;;;;;;66.28;9.25;;;23.10;86.00;;;;;;5019727;28;20029;-61
2022/06/28 10:07:39;;;;;;;75.18;10.18;;;23.00;85.80;;;;;;5032322;28;20033;-62
2022/06/28 10:10:06;;;;;;;70.90;9.35;;;23.00;85.90;;;;;;5004989;28;20044;-62
2022/06/28 10:15:24;;;;;;;55.08;7.93;;;23.10;85.70;;;;;;5042862;28;20039;-62
2022/06/28 10:17:58;;;;;;;97.43;11.80;;;23.10;85.80;;;;;;5021505;28;20045;-62
2022/06/28 10:20:29;;;;;;;59.67;7.28;;;23.10;85.80;;;;;;5034541;28;20032;-62
2022/06/28 10:23:26;;;;;;;63.70;7.38;;;23.10;85.90;;;;;;5042187;28;20441;-61
2022/06/28 10:26:15;;;;;;;55.25;8.75;;;23.10;85.90;;;;;;5055504;28;20052;-62
2022/06/28 10:28:45;;;;;;;49.70;7.82;;;23.10;86.20;;;;;;5042489;28;20073;-62
2022/06/28 10:31:25;;;;;;;47.58;6.80;;;23.10;86.20;;;;;;5029703;28;20033;-62
2022/06/28 10:33:55;;;;;;;45.85;6.70;;;23.00;86.30;;;;;;5046701;28;20078;-62
2022/06/28 10:36:22;;;;;;;42.80;7.40;;;23.00;86.20;;;;;;5048574;28;20203;-61
2022/06/28 10:39:09;;;;;;;47.92;6.88;;;23.10;86.20;;;;;;5013965;28;20043;-61
2022/06/28 10:41:47;;;;;;;44.05;7.32;;;23.10;86.10;;;;;;5045934;28;20025;-61
2022/06/28 10:44:18;;;;;;;57.13;8.13;;;23.10;86.10;;;;;;5044712;28;20052;-62
2022/06/28 10:47:00;;;;;;;49.00;7.75;;;23.10;86.00;;;;;;5039130;28;20044;-62
2022/06/28 10:49:26;;;;;;;50.28;7.00;;;23.10;85.70;;;;;;5032421;28;20044;-61
2022/06/28 10:52:08;;;;;;;58.95;7.72;;;23.10;86.30;;;;;;5049622;28;20039;-62
2022/06/28 10:54:34;;;;;;;74.13;8.95;;;23.20;85.60;;;;;;5003120;28;20040;-61
2022/06/28 10:57:00;;;;;;;62.30;8.20;;;23.20;85.60;;;;;;4995397;28;20028;-61
2022/06/28 10:59:36;;;;;;;44.22;6.95;;;23.20;85.30;;;;;;5026705;28;20041;-61
2022/06/28 11:02:02;;;;;;;56.47;8.10;;;23.20;85.10;;;;;;5012921;28;20036;-62
2022/06/28 11:04:28;;;;;;;54.53;8.40;;;23.20;85.00;;;;;;5032904;28;20096;-61
2022/06/28 11:06:59;;;;;;;57.35;7.28;;;23.20;84.80;;;;;;5034204;28;20645;-61
2022/06/28 11:09:49;;;;;;;47.92;6.63;;;23.20;84.80;;;;;;5035395;28;20049;-62
2022/06/28 11:12:17;;;;;;;52.47;6.90;;;23.20;84.80;;;;;;5046219;28;20046;-61
2022/06/28 11:14:51;;;;;;;76.00;8.57;;;23.30;84.70;;;;;;5021148;28;20064;-61
2022/06/28 11:17:18;;;;;;;62.22;6.93;;;23.20;84.70;;;;;;5033292;28;20049;-61
2022/06/28 11:19:51;;;;;;;63.42;8.68;;;23.30;84.70;;;;;;5033878;28;20499;-61
2022/06/28 11:22:19;;;;;;;59.95;7.97;;;23.20;84.70;;;;;;5021856;28;20090;-61
2022/06/28 11:24:44;;;;;;;47.20;6.88;;;23.20;84.70;;;;;;5036655;28;20042;-62
2022/06/28 11:27:22;;;;;;;61.78;8.38;;;23.20;84.70;;;;;;5037861;28;20729;-62
2022/06/28 11:29:53;;;;;;;59.00;6.75;;;23.20;84.80;;;;;;5028125;28;20028;-62
2022/06/28 11:32:33;;;;;;;53.30;7.78;;;23.20;84.90;;;;;;5039276;28;20127;-62
2022/06/28 11:35:07;;;;;;;57.30;7.30;;;23.20;84.80;;;;;;5030262;28;20451;-61
2022/06/28 11:37:46;;;;;;;51.97;8.35;;;23.20;84.90;;;;;;5013923;28;20035;-62
2022/06/28 11:40:11;;;;;;;57.10;7.10;;;23.20;84.90;;;;;;5029002;28;20598;-62
2022/06/28 11:42:37;;;;;;;50.05;7.70;;;23.20;84.90;;;;;;5054116;28;20048;-61
2022/06/28 11:45:03;;;;;;;57.67;7.30;;;23.20;84.90;;;;;;5031439;28;20093;-61
2022/06/28 11:47:28;;;;;;;40.95;6.75;;;23.20;84.80;;;;;;5036945;28;21841;-62
2022/06/28 11:50:10;;;;;;;57.55;7.65;;;23.20;84.70;;;;;;5050492;28;20029;-62
2022/06/28 11:52:47;;;;;;;51.97;7.03;;;23.20;84.80;;;;;;5051685;28;20025;-61
2022/06/28 11:55:13;;;;;;;43.28;6.53;;;23.20;84.60;;;;;;5034142;28;20357;-61
2022/06/28 11:57:39;;;;;;;41.13;7.22;;;23.20;84.50;;;;;;5048457;28;20331;-62
2022/06/28 12:00:06;;;;;;;84.75;10.95;;;23.20;84.40;;;;;;5032884;28;20075;-62
2022/06/28 12:02:38;;;;;;;76.20;8.95;;;23.20;84.40;;;;;;5032376;28;20044;-61
2022/06/28 12:05:03;;;;;;;66.57;8.45;;;23.20;84.40;;;;;;5054274;28;20068;-62
2022/06/28 12:07:37;;;;;;;44.83;6.93;;;23.20;84.30;;;;;;5057020;28;20155;-62
2022/06/28 12:10:03;;;;;;;63.80;8.32;;;23.20;84.30;;;;;;5020388;28;20028;-62
2022/06/28 12:12:29;;;;;;;45.35;6.85;;;23.20;84.30;;;;;;5037237;28;20025;-61
2022/06/28 12:14:57;;;;;;;53.42;7.88;;;23.20;84.30;;;;;;5037314;28;20036;-62
2022/06/28 12:17:23;;;;;;;46.85;6.80;;;23.20;84.30;;;;;;5034115;28;20048;-62
2022/06/28 12:19:49;;;;;;;63.33;8.57;;;23.20;84.40;;;;;;5016722;28;20440;-62
2022/06/28 12:22:20;;;;;;;28.35;6.05;;;23.20;85.00;;;;;;4992943;28;20739;-62
2022/06/28 12:24:55;;;;;;;43.83;7.15;;;23.20;84.40;;;;;;5001441;28;20042;-62
2022/06/28 12:27:27;;;;;;;45.35;7.43;;;23.20;84.20;;;;;;5039679;28;20037;-62
2022/06/28 12:29:53;;;;;;;60.28;7.47;;;23.20;84.20;;;;;;5010713;28;20041;-61
2022/06/28 12:32:19;;;;;;;52.67;6.72;;;23.30;84.10;;;;;;5021528;28;20029;-62
2022/06/28 12:34:45;;;;;;;58.75;8.07;;;23.30;84.10;;;;;;5005480;28;20658;-61
2022/06/28 12:37:10;;;;;;;68.68;8.38;;;23.30;83.90;;;;;;5020630;28;20521;-62
2022/06/28 12:39:36;;;;;;;81.78;8.90;;;23.30;83.90;;;;;;5024500;28;20036;-62
2022/06/28 12:42:02;;;;;;;57.90;8.23;;;23.30;84.00;;;;;;5033405;28;20448;-62
2022/06/28 12:44:28;;;;;;;61.22;8.15;;;23.30;83.90;;;;;;5022528;28;20127;-62
2022/06/28 12:46:53;;;;;;;52.40;7.78;;;23.30;83.80;;;;;;5017487;28;20074;-62
2022/06/28 12:49:19;;;;;;;51.45;7.60;;;23.30;83.80;;;;;;5008781;28;20043;-62